Time;durP1;ratioP1;P1;durP2;ratioP2;P2;SDS_P1;SDS_P2;PMS_P1;PMS_P2;Temp;Humidity;BMP_temperature;BMP_pressure;BME280_temperature;BME280_humidity;BME280_pressure;Samples;Min_cycle;Max_cycle;Signal;HPM_P1;HPM_P2
2023/01/19 00:00:52;;;;;;;64.75;22.35;;;;;;;-0.54;81.75;98949.03;6126848;23;20020;-85
2023/01/19 00:03:19;;;;;;;53.95;21.35;;;;;;;-0.68;81.68;98956.81;6153576;23;20456;-86
2023/01/19 00:05:45;;;;;;;55.20;20.98;;;;;;;-0.63;81.75;98948.75;6153165;23;20099;-86
2023/01/19 00:08:15;;;;;;;54.70;21.23;;;;;;;-0.63;81.70;98948.75;6127597;23;20020;-85
2023/01/19 00:10:44;;;;;;;65.18;21.38;;;;;;;-0.64;82.46;98955.72;6153502;23;20486;-86
2023/01/19 00:13:11;;;;;;;53.75;21.70;;;;;;;-0.62;81.98;98959.06;6152724;23;20027;-86
2023/01/19 00:15:38;;;;;;;67.25;22.23;;;;;;;-0.66;82.96;98968.03;6177721;23;20026;-86
2023/01/19 00:18:05;;;;;;;65.15;20.63;;;;;;;-0.73;83.19;98962.28;6128852;23;20029;-86
2023/01/19 00:20:34;;;;;;;67.03;20.15;;;;;;;-0.73;82.34;98964.06;6178927;23;20039;-86
2023/01/19 00:23:02;;;;;;;53.75;20.20;;;;;;;-0.71;82.05;98968.28;6129270;23;20449;-86
2023/01/19 00:25:29;;;;;;;60.90;21.52;;;;;;;-0.59;82.51;98965.88;6200828;23;20025;-86
2023/01/19 00:27:56;;;;;;;65.57;21.55;;;;;;;-0.56;82.12;98960.50;6153005;23;20040;-85
2023/01/19 00:30:24;;;;;;;61.20;20.85;;;;;;;-0.57;82.54;98966.66;6154104;23;20017;-86
2023/01/19 00:32:50;;;;;;;53.15;19.45;;;;;;;-0.51;81.88;98966.28;6153956;23;20063;-86
2023/01/19 00:35:17;;;;;;;60.22;20.73;;;;;;;-0.53;81.81;98960.34;6151554;23;20035;-86
2023/01/19 00:37:44;;;;;;;55.40;18.95;;;;;;;-0.70;81.88;98966.50;6153604;23;20020;-86
2023/01/19 00:40:12;;;;;;;54.42;19.88;;;;;;;-0.69;81.05;98973.38;6178404;23;20021;-86
2023/01/19 00:42:39;;;;;;;47.88;18.33;;;;;;;-0.69;81.78;98974.25;6128915;23;20048;-86
2023/01/19 00:45:08;;;;;;;53.40;18.98;;;;;;;-0.75;81.96;98978.94;6129071;23;20034;-87
2023/01/19 00:47:35;;;;;;;57.42;20.08;;;;;;;-0.81;82.33;98976.69;6152541;23;20028;-87
2023/01/19 00:50:02;;;;;;;56.72;20.15;;;;;;;-0.77;81.74;98981.63;6154045;23;20348;-86
2023/01/19 00:52:29;;;;;;;63.38;20.73;;;;;;;-0.81;82.46;98976.69;6128082;23;20024;-85
2023/01/19 00:54:55;;;;;;;61.92;21.08;;;;;;;-0.79;82.34;98975.69;6154410;23;20027;-87
2023/01/19 00:57:22;;;;;;;53.97;19.23;;;;;;;-0.79;82.82;98983.50;6153521;23;20408;-87
2023/01/19 00:59:49;;;;;;;54.85;19.73;;;;;;;-0.82;83.42;98977.59;6129879;23;20048;-87
2023/01/19 01:02:16;;;;;;;56.90;18.85;;;;;;;-0.79;83.36;98974.81;6152884;23;20024;-88
2023/01/19 01:04:43;;;;;;;51.50;18.23;;;;;;;-0.76;83.03;98975.50;6129138;23;20024;-86
2023/01/19 01:07:09;;;;;;;54.95;18.95;;;;;;;-0.76;83.26;98982.50;6130166;23;20019;-86
2023/01/19 01:09:36;;;;;;;48.88;18.52;;;;;;;-0.73;82.82;98985.75;6154100;23;20445;-86
2023/01/19 01:12:03;;;;;;;45.40;16.92;;;;;;;-0.67;82.26;98984.56;6129204;23;20024;-87
2023/01/19 01:14:31;;;;;;;49.05;17.98;;;;;;;-0.70;82.20;98987.34;6153792;23;20063;-86
2023/01/19 01:16:59;;;;;;;52.78;18.10;;;;;;;-0.63;81.59;98995.69;6140421;23;20019;-86
2023/01/19 01:19:26;;;;;;;54.28;20.00;;;;;;;-0.67;81.05;99000.22;6129506;23;20660;-86
2023/01/19 01:21:54;;;;;;;49.53;18.67;;;;;;;-0.59;80.96;99005.00;6154089;23;20445;-86
2023/01/19 01:24:21;;;;;;;47.47;17.45;;;;;;;-0.61;81.20;99002.50;6154782;23;20401;-86
2023/01/19 01:26:47;;;;;;;33.58;13.43;;;;;;;-0.59;80.30;99011.03;6151397;23;20504;-86
2023/01/19 01:29:14;;;;;;;41.63;15.02;;;;;;;-0.59;79.55;98999.78;6177054;23;20054;-86
2023/01/19 01:31:41;;;;;;;42.45;16.35;;;;;;;-0.66;79.84;99000.13;6178267;23;20095;-87
2023/01/19 01:34:08;;;;;;;39.50;15.98;;;;;;;-0.64;80.65;99001.81;6127904;23;20518;-86
2023/01/19 01:36:34;;;;;;;39.15;15.55;;;;;;;-0.64;80.95;99005.25;6127556;23;20025;-85
2023/01/19 01:39:02;;;;;;;35.85;15.90;;;;;;;-0.55;81.16;99003.91;6152692;23;20021;-87
2023/01/19 01:41:29;;;;;;;32.55;14.20;;;;;;;-0.55;81.04;99006.50;6152315;23;20430;-86
2023/01/19 01:44:01;;;;;;;35.28;15.95;;;;;;;-0.59;81.29;99000.63;6152169;23;20048;-86
2023/01/19 01:46:30;;;;;;;34.25;14.75;;;;;;;-0.63;80.62;99008.72;6152335;23;20024;-87
2023/01/19 01:49:02;;;;;;;38.42;15.80;;;;;;;-0.61;80.23;99009.44;6202147;23;20421;-86
2023/01/19 01:51:43;;;;;;;42.75;15.68;;;;;;;-0.66;80.16;99002.75;6176805;23;20364;-86
2023/01/19 01:54:22;;;;;;;40.45;16.38;;;;;;;-0.67;80.71;98995.81;6079124;23;20013;-86
2023/01/19 01:56:50;;;;;;;51.17;17.85;;;;;;;-0.68;80.41;99001.16;6175197;23;20087;-87
2023/01/19 01:59:24;;;;;;;46.35;17.23;;;;;;;-0.73;80.50;98996.19;6127395;23;20029;-86
2023/01/19 02:04:49;;;;;;;44.88;16.83;;;;;;;-0.78;80.31;98993.00;6176456;23;20028;-86
2023/01/19 02:15:43;;;;;;;43.72;16.90;;;;;;;-0.83;81.20;98996.78;6150664;23;20048;-86
2023/01/19 02:18:09;;;;;;;47.58;17.13;;;;;;;-0.70;81.51;98997.78;6150991;23;20016;-86
2023/01/19 02:20:38;;;;;;;47.67;17.25;;;;;;;-0.74;81.84;99001.47;6153395;23;20382;-87
2023/01/19 02:23:11;;;;;;;46.85;17.45;;;;;;;-0.71;81.60;99002.16;6177239;23;20028;-86
2023/01/19 02:25:39;;;;;;;47.60;16.77;;;;;;;-0.69;81.59;99002.06;6127270;23;20020;-87
2023/01/19 02:28:06;;;;;;;53.33;19.25;;;;;;;-0.74;81.83;99007.56;6152582;23;20087;-86
2023/01/19 02:30:34;;;;;;;43.38;16.48;;;;;;;-0.85;82.08;99012.50;6152420;23;20021;-87
2023/01/19 02:33:01;;;;;;;53.55;18.52;;;;;;;-0.77;81.76;99009.47;6128877;23;20008;-87
2023/01/19 02:35:29;;;;;;;53.70;17.90;;;;;;;-0.78;81.64;99010.41;6200975;23;20025;-87
2023/01/19 02:37:56;;;;;;;49.38;17.55;;;;;;;-0.73;82.31;99018.81;6151630;23;20028;-86
2023/01/19 02:40:24;;;;;;;56.88;19.48;;;;;;;-0.77;82.07;99019.91;6175241;23;20102;-85
2023/01/19 02:42:52;;;;;;;55.08;18.77;;;;;;;-0.81;82.29;99010.56;6152908;23;20024;-86
2023/01/19 02:45:20;;;;;;;52.42;18.92;;;;;;;-0.75;82.00;99008.47;6175245;23;20021;-86
2023/01/19 02:47:49;;;;;;;51.10;19.40;;;;;;;-0.80;82.27;99007.88;6151770;23;20035;-87
2023/01/19 02:50:34;;;;;;;52.58;19.70;;;;;;;-0.71;82.10;99004.75;6176294;23;20017;-87
2023/01/19 02:53:32;;;;;;;59.67;20.08;;;;;;;-0.72;81.95;99005.66;6151185;23;20021;-86
2023/01/19 02:56:27;;;;;;;49.70;18.92;;;;;;;-0.67;81.76;99008.03;6174410;23;20021;-87
2023/01/19 02:59:14;;;;;;;55.05;18.83;;;;;;;-0.68;82.36;99001.16;6127083;23;20021;-86
2023/01/19 03:02:07;;;;;;;56.85;20.77;;;;;;;-0.70;82.53;99001.22;6081578;23;20024;-86
2023/01/19 03:04:59;;;;;;;57.50;20.50;;;;;;;-0.71;82.22;98999.56;6197403;23;20020;-88
2023/01/19 03:07:52;;;;;;;64.00;21.30;;;;;;;-0.70;82.73;99003.00;6151811;23;20079;-87
2023/01/19 03:10:42;;;;;;;65.55;20.73;;;;;;;-0.70;83.63;99008.22;6131860;23;20024;-87
2023/01/19 03:13:25;;;;;;;58.70;20.45;;;;;;;-0.63;82.87;98999.13;6149711;23;20016;-86
2023/01/19 03:15:55;;;;;;;56.08;19.67;;;;;;;-0.69;82.95;98997.72;6103813;23;20024;-86
2023/01/19 03:18:25;;;;;;;54.78;19.60;;;;;;;-0.63;83.66;98996.53;6128338;23;20020;-87
2023/01/19 03:20:55;;;;;;;56.65;20.40;;;;;;;-0.64;83.73;99001.81;6177408;23;20013;-87
2023/01/19 03:23:25;;;;;;;57.72;20.27;;;;;;;-0.64;82.85;99007.03;6153157;23;20021;-87
2023/01/19 03:25:53;;;;;;;56.80;19.42;;;;;;;-0.60;82.89;99006.78;6151953;23;20087;-87
2023/01/19 03:28:21;;;;;;;63.53;19.88;;;;;;;-0.53;82.63;98999.44;6150951;23;20059;-86
2023/01/19 03:30:55;;;;;;;62.95;21.55;;;;;;;-0.55;82.63;99011.72;6152811;23;20016;-87
2023/01/19 03:33:26;;;;;;;54.63;20.67;;;;;;;-0.51;83.01;99005.41;6101873;23;20019;-86
2023/01/19 03:35:57;;;;;;;56.80;19.20;;;;;;;-0.56;84.32;99010.91;6176902;23;20050;-86
2023/01/19 03:38:25;;;;;;;64.25;20.45;;;;;;;-0.56;84.08;99012.63;6127940;23;20020;-87
2023/01/19 03:40:58;;;;;;;50.53;18.80;;;;;;;-0.61;83.99;99004.22;6129527;23;20020;-86
2023/01/19 03:43:25;;;;;;;55.67;20.08;;;;;;;-0.47;83.48;99012.13;6178543;23;20024;-87
2023/01/19 03:45:52;;;;;;;56.35;19.10;;;;;;;-0.49;83.58;99007.00;6178137;23;20052;-86
2023/01/19 03:48:20;;;;;;;46.38;18.15;;;;;;;-0.47;83.25;99012.97;6152832;23;20020;-87
2023/01/19 03:50:47;;;;;;;57.08;20.40;;;;;;;-0.49;83.75;99008.75;6153092;23;20031;-86
2023/01/19 03:53:15;;;;;;;43.22;17.40;;;;;;;-0.44;83.85;99014.56;6128873;23;20024;-87
2023/01/19 03:55:45;;;;;;;48.38;17.80;;;;;;;-0.44;83.66;99014.56;6129233;23;20103;-86
2023/01/19 03:58:12;;;;;;;60.42;20.17;;;;;;;-0.45;83.91;99018.09;6103602;23;20060;-86
2023/01/19 04:00:39;;;;;;;49.97;18.77;;;;;;;-0.49;84.66;99008.75;6154354;23;20017;-86
2023/01/19 04:03:12;;;;;;;51.65;19.17;;;;;;;-0.43;83.99;99018.88;6153008;23;20025;-87
2023/01/19 04:05:39;;;;;;;53.80;17.55;;;;;;;-0.41;83.69;99016.16;6153071;23;20020;-88
2023/01/19 04:08:05;;;;;;;49.05;18.30;;;;;;;-0.42;83.77;99022.31;6153263;23;20046;-86
2023/01/19 04:10:32;;;;;;;48.60;18.33;;;;;;;-0.45;84.18;99018.09;6179316;23;20037;-87
2023/01/19 04:13:00;;;;;;;40.80;16.75;;;;;;;-0.42;84.41;99025.75;6152855;23;20424;-86
2023/01/19 04:15:28;;;;;;;47.85;18.80;;;;;;;-0.36;84.03;99025.41;6203074;23;20024;-88
2023/01/19 04:17:59;;;;;;;42.83;18.23;;;;;;;-0.41;83.41;99029.19;6128667;23;20020;-85
2023/01/19 04:20:27;;;;;;;42.53;17.95;;;;;;;-0.36;83.98;99033.22;6124935;23;20207;-85
2023/01/19 04:22:55;;;;;;;49.13;18.45;;;;;;;-0.40;84.65;99031.72;6128251;23;20444;-85
2023/01/19 04:25:21;;;;;;;49.65;18.58;;;;;;;-0.44;84.25;99033.66;6177624;23;20024;-86
2023/01/19 04:27:51;;;;;;;41.63;17.65;;;;;;;-0.41;84.50;99037.84;6152533;23;20021;-85
2023/01/19 04:30:18;;;;;;;43.78;18.35;;;;;;;-0.34;84.75;99033.16;6152625;23;20453;-86
2023/01/19 04:32:45;;;;;;;48.40;17.50;;;;;;;-0.35;85.25;99034.91;6174102;23;20048;-87
2023/01/19 04:35:12;;;;;;;46.40;17.45;;;;;;;-0.32;85.16;99036.50;6152883;23;20048;-85
2023/01/19 04:37:39;;;;;;;44.55;17.08;;;;;;;-0.29;85.19;99031.13;6103464;23;20333;-86
2023/01/19 04:40:06;;;;;;;43.45;16.77;;;;;;;-0.26;85.54;99029.16;6154217;23;20045;-86
2023/01/19 04:42:33;;;;;;;47.25;17.42;;;;;;;-0.27;85.76;99030.09;6151802;23;20042;-86
2023/01/19 04:45:00;;;;;;;45.03;18.15;;;;;;;-0.27;85.64;99037.09;6152613;23;20445;-87
2023/01/19 04:47:28;;;;;;;47.65;18.40;;;;;;;-0.34;85.66;99033.16;6129325;23;20032;-85
2023/01/19 04:49:54;;;;;;;43.08;17.52;;;;;;;-0.32;85.50;99033.91;6136878;23;20404;-86
2023/01/19 04:52:21;;;;;;;42.83;17.38;;;;;;;-0.26;85.26;99028.31;6128327;23;20025;-86
2023/01/19 04:54:48;;;;;;;45.65;18.00;;;;;;;-0.30;86.18;99034.66;6154215;23;20020;-92
2023/01/19 04:57:14;;;;;;;43.72;17.13;;;;;;;-0.20;85.62;99033.22;6153986;23;20032;-90
2023/01/19 04:59:41;;;;;;;56.00;18.08;;;;;;;-0.18;85.48;99035.72;6151495;23;20055;-91
2023/01/19 05:02:08;;;;;;;50.10;19.33;;;;;;;-0.11;85.53;99035.28;6116629;23;20437;-91
2023/01/19 05:04:35;;;;;;;47.78;19.33;;;;;;;-0.22;85.79;99033.28;6128602;23;20020;-89
2023/01/19 05:07:01;;;;;;;48.35;18.80;;;;;;;-0.09;85.14;99032.59;6152743;23;20020;-85
2023/01/19 05:09:28;;;;;;;59.35;20.10;;;;;;;-0.16;85.73;99034.69;6128014;23;20132;-92
2023/01/19 05:11:55;;;;;;;55.92;20.42;;;;;;;-0.16;85.90;99032.09;6167564;23;20024;-92
2023/01/19 05:14:22;;;;;;;56.50;20.25;;;;;;;-0.13;85.90;99029.31;6131901;23;20344;-92
2023/01/19 05:16:48;;;;;;;54.85;20.25;;;;;;;-0.14;86.49;99039.84;6105729;23;20400;-91
2023/01/19 05:19:15;;;;;;;50.75;21.63;;;;;;;-0.16;86.36;99045.13;6130522;23;20051;-94
2023/01/19 05:21:42;;;;;;;56.38;20.75;;;;;;;-0.14;86.96;99043.28;6133522;23;20015;-94
2023/01/19 05:24:09;;;;;;;61.05;22.77;;;;;;;-0.09;87.00;99045.63;6133033;23;20086;-94
2023/01/19 05:26:36;;;;;;;53.50;20.42;;;;;;;-0.11;86.79;99044.88;6118007;23;20083;-94
2023/01/19 05:29:03;;;;;;;49.83;20.60;;;;;;;-0.07;86.51;99043.78;6106528;23;20023;-89
2023/01/19 05:31:30;;;;;;;53.28;20.13;;;;;;;-0.07;86.32;99043.78;6129726;23;20096;-89
2023/01/19 05:33:59;;;;;;;49.28;21.30;;;;;;;-0.10;86.71;99046.56;6113471;23;20465;-89
2023/01/19 05:36:27;;;;;;;54.92;20.02;;;;;;;-0.09;86.96;99043.88;6103793;23;20028;-90
2023/01/19 05:38:53;;;;;;;52.92;20.45;;;;;;;-0.11;87.48;99058.75;6154960;23;20448;-90
2023/01/19 05:41:20;;;;;;;51.45;20.55;;;;;;;-0.07;87.32;99060.28;6130057;23;20445;-91
2023/01/19 05:43:47;;;;;;;58.10;20.23;;;;;;;-0.05;86.58;99057.56;6153488;23;20020;-90
2023/01/19 05:46:14;;;;;;;51.22;21.20;;;;;;;-0.09;86.85;99058.69;6155130;23;20016;-90
2023/01/19 05:48:40;;;;;;;50.22;20.05;;;;;;;-0.04;86.56;99059.25;6129407;23;20025;-90
2023/01/19 05:51:07;;;;;;;54.38;19.50;;;;;;;0.00;86.68;99052.94;6130281;23;20368;-91
2023/01/19 05:53:34;;;;;;;53.80;21.30;;;;;;;-0.04;87.37;99061.88;6153755;23;20032;-92
2023/01/19 05:56:03;;;;;;;54.25;22.58;;;;;;;-0.05;87.29;99068.88;6129335;23;20027;-92
2023/01/19 05:58:33;;;;;;;57.00;20.48;;;;;;;-0.04;87.57;99067.09;6129813;23;20016;-91
2023/01/19 06:01:05;;;;;;;59.30;21.35;;;;;;;-0.03;87.35;99066.16;6128962;23;20021;-91
2023/01/19 06:03:33;;;;;;;50.88;21.48;;;;;;;-0.03;87.53;99061.78;6153875;23;20021;-91
2023/01/19 06:06:00;;;;;;;57.20;21.08;;;;;;;-0.07;87.61;99072.50;6154038;23;20059;-90
2023/01/19 06:08:27;;;;;;;46.20;20.50;;;;;;;0.01;87.14;99072.06;6130504;23;20021;-91
2023/01/19 06:10:53;;;;;;;52.00;21.58;;;;;;;0.04;87.27;99070.09;6153230;23;20020;-92
2023/01/19 06:13:20;;;;;;;47.80;19.45;;;;;;;0.02;87.61;99068.50;6154194;23;20456;-90
2023/01/19 06:15:47;;;;;;;53.13;21.70;;;;;;;0.01;88.01;99067.66;6154138;23;20024;-91
2023/01/19 06:18:14;;;;;;;46.97;19.70;;;;;;;0.06;87.50;99059.59;6129359;23;20091;-92
2023/01/19 06:20:40;;;;;;;45.33;18.80;;;;;;;0.03;87.54;99063.22;6154825;23;20449;-91
2023/01/19 06:23:07;;;;;;;49.55;20.17;;;;;;;0.02;87.89;99065.91;6153320;23;20448;-91
2023/01/19 06:25:34;;;;;;;52.33;20.02;;;;;;;0.03;87.65;99073.66;6153360;23;20016;-91
2023/01/19 06:28:00;;;;;;;44.97;18.85;;;;;;;0.05;87.29;99079.63;6153890;23;20070;-92
2023/01/19 06:30:27;;;;;;;54.85;19.38;;;;;;;-0.03;87.90;99080.03;6154031;23;20020;-91
2023/01/19 06:32:54;;;;;;;51.92;20.02;;;;;;;-0.05;88.40;99075.84;6153558;23;20020;-91
2023/01/19 06:35:21;;;;;;;46.50;18.98;;;;;;;-0.04;88.06;99072.31;6154330;23;20475;-90
2023/01/19 06:37:48;;;;;;;53.97;20.33;;;;;;;-0.03;87.69;99082.66;6153559;23;20016;-86
2023/01/19 06:40:14;;;;;;;48.47;19.38;;;;;;;-0.14;88.10;99082.44;6153657;23;20024;-85
2023/01/19 06:42:41;;;;;;;52.83;19.98;;;;;;;-0.08;87.83;99076.84;6129883;23;20100;-86
2023/01/19 06:45:08;;;;;;;47.33;17.38;;;;;;;-0.06;87.42;99084.59;6153861;23;20028;-86
2023/01/19 06:47:35;;;;;;;50.00;17.83;;;;;;;-0.06;87.50;99089.81;6128759;23;20023;-85
2023/01/19 06:50:02;;;;;;;43.85;17.83;;;;;;;-0.05;87.69;99099.31;6154622;23;20530;-86
2023/01/19 06:52:29;;;;;;;40.88;18.23;;;;;;;-0.07;87.74;99096.81;6154188;23;20023;-87
2023/01/19 06:54:55;;;;;;;46.13;17.50;;;;;;;-0.09;88.17;99101.28;6153743;23;20344;-84
2023/01/19 06:57:22;;;;;;;51.40;18.05;;;;;;;-0.05;88.37;99101.94;6178353;23;20040;-86
2023/01/19 06:59:49;;;;;;;47.45;17.98;;;;;;;-0.04;88.51;99093.19;6153594;23;20380;-86
2023/01/19 07:02:19;;;;;;;45.95;17.77;;;;;;;0.02;88.29;99102.44;6154575;23;20467;-86
2023/01/19 07:04:55;;;;;;;60.47;18.10;;;;;;;0.02;88.21;99107.66;6152556;23;20031;-86
2023/01/19 07:07:21;;;;;;;48.88;17.73;;;;;;;0.04;88.17;99106.63;6153880;23;20029;-86
2023/01/19 07:09:48;;;;;;;39.97;17.80;;;;;;;0.05;87.74;99103.13;6129539;23;20098;-84
2023/01/19 07:12:19;;;;;;;49.67;18.77;;;;;;;0.04;88.07;99101.41;6158786;23;20029;-86
2023/01/19 07:14:48;;;;;;;48.90;18.83;;;;;;;0.04;88.23;99097.97;6182210;23;20028;-86
2023/01/19 07:17:14;;;;;;;45.05;17.23;;;;;;;0.01;89.29;99101.59;6132429;23;20024;-85
2023/01/19 07:19:41;;;;;;;47.08;18.60;;;;;;;0.02;89.68;99094.59;6157143;23;20031;-85
2023/01/19 07:22:08;;;;;;;54.55;20.80;;;;;;;0.06;88.89;99103.97;6182094;23;20020;-85
2023/01/19 07:24:36;;;;;;;53.53;20.88;;;;;;;0.06;88.79;99096.97;6156959;23;20028;-86
2023/01/19 07:27:04;;;;;;;46.78;20.58;;;;;;;0.12;88.26;99100.97;6157681;23;20024;-86
2023/01/19 07:29:30;;;;;;;46.53;19.83;;;;;;;0.12;88.13;99107.03;6132404;23;20027;-83
2023/01/19 07:31:57;;;;;;;46.03;17.73;;;;;;;0.14;88.13;99110.41;6157276;23;20028;-86
2023/01/19 07:34:24;;;;;;;38.60;16.50;;;;;;;0.18;88.15;99117.16;6131741;23;20456;-86
2023/01/19 07:36:50;;;;;;;43.53;17.77;;;;;;;0.12;88.68;99112.25;6157718;23;20460;-85
2023/01/19 07:39:17;;;;;;;48.47;19.42;;;;;;;0.20;87.79;99112.69;6133031;23;20016;-86
2023/01/19 07:41:44;;;;;;;42.63;17.92;;;;;;;0.19;87.93;99108.38;6156727;23;20456;-86
2023/01/19 07:44:12;;;;;;;52.67;18.25;;;;;;;0.14;88.88;99112.19;6181588;23;20041;-85
2023/01/19 07:46:40;;;;;;;46.22;17.95;;;;;;;0.15;88.91;99113.84;6157493;23;20016;-85
2023/01/19 07:49:07;;;;;;;43.53;18.27;;;;;;;0.18;88.50;99111.94;6156860;23;20024;-85
2023/01/19 07:51:33;;;;;;;44.10;17.45;;;;;;;0.20;88.48;99117.91;6132559;23;20032;-84
2023/01/19 07:54:00;;;;;;;45.63;19.90;;;;;;;0.22;88.51;99104.75;6157490;23;20016;-86
2023/01/19 07:56:29;;;;;;;44.03;18.25;;;;;;;0.22;88.55;99117.81;6182159;23;20028;-85
2023/01/19 07:58:58;;;;;;;52.80;17.63;;;;;;;0.24;88.73;99113.34;6182021;23;20326;-85
2023/01/19 08:01:25;;;;;;;44.88;19.92;;;;;;;0.20;89.55;99123.13;6156142;23;20333;-84
2023/01/19 08:03:52;;;;;;;40.95;17.05;;;;;;;0.25;88.87;99124.63;6157881;23;20040;-85
2023/01/19 08:06:21;;;;;;;50.25;19.70;;;;;;;0.25;88.94;99124.63;6181137;23;20108;-86
2023/01/19 08:08:48;;;;;;;48.03;18.58;;;;;;;0.29;88.81;99121.75;6131439;23;20031;-85
2023/01/19 08:11:15;;;;;;;42.67;17.08;;;;;;;0.26;89.86;99121.09;6157220;23;20026;-85
2023/01/19 08:13:42;;;;;;;46.55;19.55;;;;;;;0.24;89.43;99134.22;6132058;23;20025;-85
2023/01/19 08:16:09;;;;;;;51.85;20.75;;;;;;;0.25;89.39;99133.28;6131835;23;20038;-85
2023/01/19 08:18:36;;;;;;;44.10;18.33;;;;;;;0.29;88.71;99131.34;6156541;23;20357;-85
2023/01/19 08:21:03;;;;;;;46.50;18.88;;;;;;;0.31;88.87;99134.72;6157057;23;20095;-84
2023/01/19 08:23:30;;;;;;;53.10;19.02;;;;;;;0.30;89.21;99139.09;6154862;23;20027;-85
2023/01/19 08:25:56;;;;;;;56.70;19.60;;;;;;;0.30;89.29;99138.25;6155440;23;20023;-86
2023/01/19 08:28:23;;;;;;;51.58;20.92;;;;;;;0.34;88.89;99142.38;6129910;23;20013;-86
2023/01/19 08:30:53;;;;;;;43.75;18.30;;;;;;;0.34;88.53;99140.59;6155381;23;20054;-84
2023/01/19 08:33:21;;;;;;;46.03;19.60;;;;;;;0.32;88.71;99145.06;6131591;23;20024;-85
2023/01/19 08:35:51;;;;;;;48.78;19.50;;;;;;;0.31;88.40;99145.16;6130685;23;20079;-85
2023/01/19 08:38:18;;;;;;;44.78;18.73;;;;;;;0.35;88.30;99146.66;6179624;23;20047;-85
2023/01/19 08:40:45;;;;;;;46.25;18.92;;;;;;;0.36;88.01;99138.75;6155551;23;20016;-85
2023/01/19 08:43:14;;;;;;;50.70;18.60;;;;;;;0.38;88.46;99143.88;6153826;23;20355;-84
2023/01/19 08:45:47;;;;;;;40.08;18.63;;;;;;;0.41;88.11;99148.94;6179142;23;20039;-84
2023/01/19 08:48:15;;;;;;;;;;;;;;;0.29;88.56;99144.41;6179574;23;20016;-84
2023/01/19 08:50:44;;;;;;;49.53;17.73;;;;;;;0.41;87.72;99149.78;6154779;23;19923;-83
2023/01/19 08:53:10;;;;;;;41.55;16.83;;;;;;;0.45;87.50;99147.81;6154150;23;20019;-84
2023/01/19 08:55:38;;;;;;;47.25;17.52;;;;;;;0.46;87.06;99149.50;6178955;23;20027;-84
2023/01/19 08:58:05;;;;;;;47.25;17.63;;;;;;;0.48;87.26;99141.56;6129521;23;20017;-84
2023/01/19 09:00:36;;;;;;;46.60;17.38;;;;;;;0.47;86.89;99147.72;6179246;23;20323;-84
2023/01/19 09:03:05;;;;;;;43.75;17.63;;;;;;;0.50;86.47;99158.00;6177866;23;20032;-84
2023/01/19 09:05:37;;;;;;;44.22;16.55;;;;;;;0.49;86.21;99157.16;6178577;23;20462;-84
2023/01/19 09:08:09;;;;;;;42.37;17.27;;;;;;;0.52;85.91;99159.59;6153086;23;20020;-84
2023/01/19 09:10:37;;;;;;;47.03;18.08;;;;;;;0.55;86.52;99162.03;6129533;23;20049;-85
2023/01/19 09:13:07;;;;;;;43.58;19.27;;;;;;;0.59;86.88;99167.94;6178557;23;20024;-83
2023/01/19 09:15:36;;;;;;;40.03;16.10;;;;;;;0.61;86.53;99164.28;6203944;23;20437;-83
2023/01/19 09:18:04;;;;;;;48.97;17.55;;;;;;;0.63;86.89;99151.97;6130161;23;20017;-85
2023/01/19 09:20:33;;;;;;;45.88;16.73;;;;;;;0.68;86.13;99158.69;6153722;23;20396;-84
2023/01/19 09:23:00;;;;;;;52.70;17.50;;;;;;;0.64;86.01;99155.44;6154529;23;20024;-85
2023/01/19 09:25:26;;;;;;;43.80;16.80;;;;;;;0.70;85.74;99162.91;6178569;23;20051;-85
2023/01/19 09:27:54;;;;;;;45.35;17.35;;;;;;;0.68;85.56;99159.53;6153683;23;20466;-83
2023/01/19 09:30:21;;;;;;;42.55;17.40;;;;;;;0.64;86.04;99158.88;6154081;23;20020;-83
2023/01/19 09:32:48;;;;;;;44.22;17.83;;;;;;;0.63;85.87;99162.41;6129368;23;20028;-84
2023/01/19 09:35:15;;;;;;;42.47;17.02;;;;;;;0.64;86.48;99156.28;6178162;23;20017;-84
2023/01/19 09:37:45;;;;;;;46.83;18.52;;;;;;;0.60;86.49;99148.69;6177846;23;20032;-84
2023/01/19 09:40:14;;;;;;;44.58;17.55;;;;;;;0.62;86.22;99158.13;6129423;23;20044;-83
2023/01/19 09:42:42;;;;;;;53.15;18.75;;;;;;;0.60;86.33;99162.59;6178642;23;20429;-84
2023/01/19 09:45:35;;;;;;;38.97;18.33;;;;;;;0.64;86.01;99155.44;6152010;23;20026;-85
2023/01/19 09:48:18;;;;;;;49.63;18.25;;;;;;;0.65;86.42;99159.72;6129953;23;20020;-84
2023/01/19 09:50:46;;;;;;;45.10;17.70;;;;;;;0.71;86.38;99150.66;6176203;23;20377;-84
2023/01/19 09:53:17;;;;;;;44.85;18.95;;;;;;;0.74;86.17;99153.09;6176989;23;20020;-85
2023/01/19 09:55:44;;;;;;;44.15;17.98;;;;;;;0.78;86.35;99152.84;6153629;23;20099;-85
2023/01/19 09:58:15;;;;;;;47.38;18.65;;;;;;;0.77;86.92;99156.38;6153169;23;20016;-85
2023/01/19 10:00:48;;;;;;;52.05;20.30;;;;;;;0.81;85.91;99154.41;6153358;23;20028;-84
2023/01/19 10:03:16;;;;;;;51.90;19.67;;;;;;;0.85;86.13;99158.53;6153344;23;20381;-85
2023/01/19 10:06:02;;;;;;;53.50;19.77;;;;;;;0.81;86.86;99155.25;6152860;23;20020;-84
2023/01/19 10:08:45;;;;;;;44.10;17.10;;;;;;;0.85;86.65;99161.16;6083404;23;20017;-84
2023/01/19 10:11:24;;;;;;;46.35;17.70;;;;;;;0.88;86.23;99158.34;6126492;23;20112;-84
2023/01/19 10:13:53;;;;;;;41.35;17.08;;;;;;;0.92;86.32;99159.88;6176103;23;20028;-84
2023/01/19 10:17:14;;;;;;;40.90;16.42;;;;;;;0.91;85.87;99154.72;6153646;23;20083;-84
2023/01/19 10:19:44;;;;;;;44.63;17.73;;;;;;;0.95;85.67;99158.84;6064795;23;20018;-85
2023/01/19 10:22:24;;;;;;;46.88;17.25;;;;;;;0.95;85.46;99156.22;6136999;23;20460;-84
2023/01/19 10:24:55;;;;;;;41.55;15.55;;;;;;;1.00;85.49;99165.47;6151508;23;20020;-83
2023/01/19 10:27:27;;;;;;;45.17;17.15;;;;;;;1.00;85.76;99157.63;6127452;23;20017;-84
2023/01/19 10:29:55;;;;;;;43.45;16.10;;;;;;;1.03;85.79;99159.22;6126421;23;20025;-82
2023/01/19 10:32:24;;;;;;;38.13;15.90;;;;;;;1.02;85.51;99147.94;6153603;23;20028;-84
2023/01/19 10:34:52;;;;;;;48.25;16.98;;;;;;;1.05;85.94;99160.81;6152867;23;20031;-85
2023/01/19 10:37:31;;;;;;;49.67;20.08;;;;;;;1.03;86.30;99154.00;6152005;23;20021;-84
2023/01/19 10:40:10;;;;;;;48.85;19.60;;;;;;;1.05;86.19;99155.56;6151635;23;20016;-84
2023/01/19 10:42:40;;;;;;;46.53;18.73;;;;;;;1.08;86.17;99150.16;6176089;23;20572;-84
2023/01/19 10:45:24;;;;;;;53.92;18.08;;;;;;;1.07;86.21;99155.50;6176342;23;20023;-82
2023/01/19 10:47:52;;;;;;;51.60;19.08;;;;;;;1.11;85.66;99156.16;6127192;23;20059;-84
2023/01/19 10:50:33;;;;;;;49.60;17.60;;;;;;;1.07;85.35;99152.88;6203403;23;20020;-84
2023/01/19 10:53:02;;;;;;;57.10;20.85;;;;;;;1.11;85.66;99156.16;6150650;23;20071;-84
2023/01/19 10:55:33;;;;;;;46.08;17.55;;;;;;;1.14;85.75;99161.19;6151924;23;20488;-85
2023/01/19 10:58:00;;;;;;;48.15;17.95;;;;;;;1.10;85.62;99154.47;6176667;23;20091;-84
2023/01/19 11:00:32;;;;;;;39.58;16.80;;;;;;;1.12;85.28;99160.44;6177460;23;20067;-85
2023/01/19 11:02:59;;;;;;;44.67;17.30;;;;;;;1.16;85.45;99154.91;6151264;23;20099;-83
2023/01/19 11:05:31;;;;;;;49.72;19.15;;;;;;;1.17;85.78;99154.00;6152798;23;20020;-85
2023/01/19 11:07:58;;;;;;;51.85;18.33;;;;;;;1.20;85.52;99156.44;6151551;23;20078;-85
2023/01/19 11:10:28;;;;;;;41.63;15.75;;;;;;;1.22;85.37;99161.56;6153171;23;20024;-85
2023/01/19 11:13:14;;;;;;;37.95;15.90;;;;;;;1.20;85.41;99156.44;6177384;23;20024;-85
2023/01/19 11:15:44;;;;;;;45.22;16.48;;;;;;;1.24;85.31;99159.69;6152091;23;20196;-84
2023/01/19 11:18:24;;;;;;;45.17;17.08;;;;;;;1.24;85.30;99162.31;6127143;23;20031;-84
2023/01/19 11:20:52;;;;;;;44.58;15.90;;;;;;;1.29;85.49;99160.25;6126577;23;20372;-84
2023/01/19 11:23:32;;;;;;;41.22;15.70;;;;;;;1.27;85.39;99156.88;6152656;23;20344;-84
2023/01/19 11:26:00;;;;;;;48.95;18.38;;;;;;;1.33;85.41;99153.06;6176037;23;20091;-84
2023/01/19 11:28:31;;;;;;;49.13;18.90;;;;;;;1.36;85.70;99153.72;6176784;23;20023;-85
2023/01/19 11:31:15;;;;;;;57.58;22.35;;;;;;;1.41;85.76;99153.44;6177323;23;20058;-85
2023/01/19 11:33:50;;;;;;;61.17;24.67;;;;;;;1.41;85.70;99154.28;6127030;23;20084;-85
2023/01/19 11:36:29;;;;;;;63.53;25.08;;;;;;;1.42;85.61;99155.94;6200445;23;20352;-85
2023/01/19 11:38:58;;;;;;;54.80;24.70;;;;;;;1.46;85.38;99152.22;6102389;23;20016;-85
2023/01/19 11:41:27;;;;;;;53.42;21.00;;;;;;;1.48;85.32;99166.03;6152003;23;20051;-85
2023/01/19 11:43:57;;;;;;;53.95;20.83;;;;;;;1.47;85.28;99143.41;6127300;23;20032;-82